createdAt,value
2019-03-03T00:00:26.992Z,60.20
2019-03-03T00:02:55.491Z,60.20
2019-03-03T00:05:23.740Z,60.00
2019-03-03T00:07:51.970Z,60.90
2019-03-03T00:10:20.217Z,60.00
2019-03-03T00:12:48.487Z,59.90
2019-03-03T00:15:17.114Z,59.90
2019-03-03T00:17:45.358Z,59.90
2019-03-03T00:20:14.754Z,59.90
2019-03-03T00:22:42.991Z,59.90
2019-03-03T00:25:13.730Z,59.80
2019-03-03T00:27:42.229Z,59.90
2019-03-03T00:30:17.450Z,59.90
2019-03-03T00:32:45.714Z,59.80
2019-03-03T00:35:14.210Z,60.70
2019-03-03T00:37:47.097Z,59.70
2019-03-03T00:40:26.499Z,59.70
2019-03-03T00:42:56.385Z,59.70
2019-03-03T00:45:27.407Z,59.60
2019-03-03T00:47:57.363Z,59.60
2019-03-03T00:50:45.521Z,59.60
2019-03-03T00:53:15.413Z,59.60
2019-03-03T00:55:47.981Z,59.60
2019-03-03T00:58:26.798Z,59.60
2019-03-03T01:01:11.955Z,59.70
2019-03-03T01:03:50.784Z,59.70
2019-03-03T01:06:37.189Z,59.70
2019-03-03T01:09:16.490Z,59.70
2019-03-03T01:11:58.553Z,59.70
2019-03-03T01:14:31.124Z,59.70
2019-03-03T01:17:00.995Z,59.80
2019-03-03T01:19:33.833Z,59.80
2019-03-03T01:22:09.478Z,59.80
2019-03-03T01:24:39.358Z,59.80
2019-03-03T01:27:07.702Z,59.70
2019-03-03T01:29:36.026Z,59.80
2019-03-03T01:32:05.175Z,59.80
2019-03-03T01:34:33.537Z,59.80
2019-03-03T01:37:01.797Z,59.70
2019-03-03T01:39:30.036Z,59.80
2019-03-03T01:41:58.277Z,59.90
2019-03-03T01:44:26.535Z,59.90
2019-03-03T01:46:54.765Z,59.90
2019-03-03T01:49:23.055Z,60.00
2019-03-03T01:51:51.601Z,60.20
2019-03-03T01:54:19.869Z,60.20
2019-03-03T01:56:48.111Z,60.30
2019-03-03T01:59:16.451Z,60.40
2019-03-03T02:01:44.691Z,60.60
2019-03-03T02:04:12.950Z,60.50
2019-03-03T02:06:41.189Z,60.50
2019-03-03T02:09:11.470Z,60.70
2019-03-03T02:11:39.777Z,60.70
2019-03-03T02:14:08.037Z,60.80
2019-03-03T02:16:37.332Z,60.90
2019-03-03T02:19:05.744Z,61.00
2019-03-03T02:21:33.987Z,60.90
2019-03-03T02:24:02.212Z,61.00
2019-03-03T02:26:30.441Z,61.10
2019-03-03T02:28:59.061Z,60.90
2019-03-03T02:31:27.393Z,61.00
2019-03-03T02:33:55.626Z,61.10
2019-03-03T02:36:24.104Z,61.20
2019-03-03T02:38:52.494Z,61.20
2019-03-03T02:41:20.736Z,61.20
2019-03-03T02:43:49.050Z,61.40
2019-03-03T02:46:17.312Z,61.50
2019-03-03T02:48:45.543Z,61.40
2019-03-03T02:51:14.229Z,61.40
2019-03-03T02:53:42.939Z,61.50
2019-03-03T02:56:11.789Z,61.60
2019-03-03T02:58:40.137Z,61.60
2019-03-03T03:01:15.734Z,61.70
2019-03-03T03:03:43.983Z,61.70
2019-03-03T03:06:20.088Z,61.80
2019-03-03T03:09:06.277Z,61.80
2019-03-03T03:11:45.073Z,61.80
2019-03-03T03:14:15.209Z,61.90
2019-03-03T03:16:45.171Z,62.10
2019-03-03T03:19:20.843Z,62.30
2019-03-03T03:21:56.681Z,62.10
2019-03-03T03:24:26.566Z,62.30
2019-03-03T03:27:07.292Z,62.30
2019-03-03T03:29:46.002Z,62.60
2019-03-03T03:32:18.868Z,62.40
2019-03-03T03:34:48.914Z,62.70
2019-03-03T03:37:22.001Z,62.80
2019-03-03T03:39:54.406Z,62.80
2019-03-03T03:42:24.285Z,63.10
2019-03-03T03:44:56.767Z,63.80
2019-03-03T03:47:35.674Z,63.10
2019-03-03T03:50:20.149Z,63.00
2019-03-03T03:52:56.094Z,63.00
2019-03-03T03:55:42.485Z,63.10
2019-03-03T03:58:12.881Z,62.90
2019-03-03T04:00:42.793Z,63.20
2019-03-03T04:03:27.892Z,63.40
2019-03-03T04:06:00.021Z,63.30
2019-03-03T04:08:44.998Z,63.50
2019-03-03T04:11:14.874Z,63.60
2019-03-03T04:13:44.858Z,63.40
2019-03-03T04:16:17.883Z,63.50
2019-03-03T04:18:49.386Z,63.60
2019-03-03T04:21:35.565Z,63.70
2019-03-03T04:24:05.434Z,63.70
2019-03-03T04:26:44.162Z,63.70
2019-03-03T04:29:25.754Z,63.90
2019-03-03T04:31:55.833Z,63.80
2019-03-03T04:34:28.725Z,64.00
2019-03-03T04:37:01.809Z,64.00
2019-03-03T04:39:34.326Z,64.70
2019-03-03T04:42:07.235Z,64.10
2019-03-03T04:44:45.941Z,64.20
2019-03-03T04:47:18.784Z,64.20
2019-03-03T04:49:55.105Z,64.20
2019-03-03T04:52:25.037Z,64.30
2019-03-03T04:55:01.186Z,64.50
2019-03-03T04:57:43.260Z,64.50
2019-03-03T05:00:13.957Z,64.60
2019-03-03T05:02:53.092Z,64.30
2019-03-03T05:05:22.977Z,64.70
2019-03-03T05:07:52.857Z,64.80
2019-03-03T05:10:28.531Z,64.70
2019-03-03T05:13:04.221Z,65.10
2019-03-03T05:15:50.523Z,64.00
2019-03-03T05:18:20.422Z,64.90
2019-03-03T05:20:50.523Z,64.80
2019-03-03T05:23:18.775Z,64.90
2019-03-03T05:25:47.087Z,65.00
2019-03-03T05:28:15.369Z,65.00
2019-03-03T05:30:43.996Z,64.90
2019-03-03T05:33:12.226Z,65.10
2019-03-03T05:35:40.464Z,65.10
2019-03-03T05:38:08.721Z,65.20
2019-03-03T05:40:36.969Z,65.00
2019-03-03T05:43:05.196Z,65.20
2019-03-03T05:45:33.541Z,65.30
2019-03-03T05:48:01.824Z,65.30
2019-03-03T05:50:30.082Z,65.20
2019-03-03T05:52:58.380Z,65.40
2019-03-03T05:55:26.873Z,65.40
2019-03-03T05:57:55.109Z,65.40
2019-03-03T06:00:23.373Z,65.40
2019-03-03T06:02:51.903Z,65.40
2019-03-03T06:05:20.141Z,65.50
2019-03-03T06:07:48.398Z,65.50
2019-03-03T06:10:16.629Z,65.50
2019-03-03T06:12:44.882Z,65.50
2019-03-03T06:15:14.740Z,65.60
2019-03-03T06:17:42.976Z,65.90
2019-03-03T06:20:11.968Z,65.80
2019-03-03T06:22:40.306Z,66.00
2019-03-03T06:25:09.876Z,65.80
2019-03-03T06:27:38.117Z,65.80
2019-03-03T06:30:09.804Z,65.80
2019-03-03T06:32:38.039Z,65.90
2019-03-03T06:35:08.307Z,65.90
2019-03-03T06:37:36.941Z,65.90
2019-03-03T06:40:08.067Z,66.20
2019-03-03T06:42:36.307Z,65.90
2019-03-03T06:45:07.293Z,66.20
2019-03-03T06:47:35.531Z,66.30
2019-03-03T06:50:04.605Z,66.30
2019-03-03T06:52:33.419Z,66.30
2019-03-03T06:55:01.666Z,66.50
2019-03-03T06:57:29.949Z,66.50
2019-03-03T06:59:58.290Z,66.50
2019-03-03T07:02:26.637Z,66.50
2019-03-03T07:04:55.094Z,66.30
2019-03-03T07:07:23.337Z,66.50
2019-03-03T07:09:51.639Z,66.60
2019-03-03T07:12:21.501Z,66.60
2019-03-03T07:14:49.748Z,66.60
2019-03-03T07:17:17.987Z,66.70
2019-03-03T07:19:46.260Z,66.60
2019-03-03T07:22:14.601Z,66.60
2019-03-03T07:24:42.918Z,66.70
2019-03-03T07:27:11.153Z,66.60
2019-03-03T07:29:41.122Z,66.80
2019-03-03T07:32:09.452Z,66.80
2019-03-03T07:34:37.737Z,66.80
2019-03-03T07:37:05.983Z,66.80
2019-03-03T07:39:34.216Z,67.00
2019-03-03T07:42:02.454Z,66.80
2019-03-03T07:44:30.705Z,66.80
2019-03-03T07:46:58.951Z,67.80
2019-03-03T07:49:27.174Z,66.90
2019-03-03T07:51:57.138Z,67.00
2019-03-03T07:54:25.392Z,67.00
2019-03-03T07:56:53.727Z,67.10
2019-03-03T07:59:21.980Z,67.20
2019-03-03T08:01:50.215Z,67.30
2019-03-03T08:04:18.515Z,67.30
2019-03-03T08:06:47.214Z,67.40
2019-03-03T08:09:15.450Z,67.60
2019-03-03T08:11:43.686Z,67.20
2019-03-03T08:14:11.941Z,67.20
2019-03-03T08:16:40.174Z,67.40
2019-03-03T08:19:08.412Z,67.50
2019-03-03T08:21:36.648Z,67.40
2019-03-03T08:24:05.135Z,67.50
2019-03-03T08:26:33.406Z,67.70
2019-03-03T08:29:01.851Z,68.60
2019-03-03T08:31:30.069Z,68.50
2019-03-03T08:33:58.306Z,67.80
2019-03-03T08:36:26.568Z,68.70
2019-03-03T08:38:54.822Z,67.80
2019-03-03T08:41:23.222Z,67.80
2019-03-03T08:43:53.130Z,67.90
2019-03-03T08:46:23.070Z,68.00
2019-03-03T08:48:55.787Z,68.10
2019-03-03T08:51:25.677Z,68.10
2019-03-03T08:53:55.554Z,68.00
2019-03-03T08:56:25.430Z,68.30
2019-03-03T08:58:55.317Z,68.20
2019-03-03T09:01:31.169Z,68.30
2019-03-03T09:04:03.468Z,68.90
2019-03-03T09:06:39.046Z,69.40
2019-03-03T09:09:18.218Z,68.50
2019-03-03T09:12:00.224Z,68.60
2019-03-03T09:14:39.105Z,68.70
2019-03-03T09:17:23.775Z,68.70
2019-03-03T09:20:12.123Z,68.60
2019-03-03T09:22:44.921Z,68.80
2019-03-03T09:25:30.041Z,68.80
2019-03-03T09:28:02.308Z,68.90
2019-03-03T09:30:35.134Z,68.80
2019-03-03T09:33:14.083Z,68.80
2019-03-03T09:35:43.957Z,69.10
2019-03-03T09:38:29.029Z,69.10
2019-03-03T09:41:06.107Z,69.10
2019-03-03T09:43:52.321Z,69.10
2019-03-03T09:46:25.158Z,69.10
2019-03-03T09:48:58.136Z,69.10
2019-03-03T09:51:28.016Z,69.20
2019-03-03T09:54:00.869Z,69.30
2019-03-03T09:56:47.350Z,69.60
2019-03-03T09:59:23.274Z,69.40
2019-03-03T10:01:53.206Z,69.50
2019-03-03T10:04:41.453Z,69.80
2019-03-03T10:07:11.324Z,69.90
2019-03-03T10:09:53.091Z,69.60
2019-03-03T10:12:23.209Z,69.80
2019-03-03T10:14:53.087Z,69.60
2019-03-03T10:17:32.001Z,69.70
2019-03-03T10:20:04.531Z,69.80
2019-03-03T10:22:43.526Z,70.40
2019-03-03T10:25:20.055Z,69.80
2019-03-03T10:27:52.884Z,69.70
2019-03-03T10:30:23.222Z,69.70
2019-03-03T10:32:53.260Z,70.40
2019-03-03T10:35:26.060Z,69.80
2019-03-03T10:37:59.199Z,69.70
2019-03-03T10:40:35.066Z,69.70
2019-03-03T10:43:21.825Z,69.70
2019-03-03T10:45:52.223Z,69.80
2019-03-03T10:48:24.977Z,69.50
2019-03-03T10:50:58.226Z,69.60
2019-03-03T10:53:33.989Z,69.50
2019-03-03T10:56:13.156Z,69.50
2019-03-03T10:58:46.211Z,69.50
2019-03-03T11:01:25.144Z,69.50
2019-03-03T11:03:55.107Z,69.50
2019-03-03T11:06:27.637Z,70.30
2019-03-03T11:08:57.581Z,69.20
2019-03-03T11:11:44.231Z,69.50
2019-03-03T11:14:30.686Z,69.30
2019-03-03T11:17:00.577Z,69.20
2019-03-03T11:19:33.178Z,69.30
2019-03-03T11:22:03.113Z,69.30
2019-03-03T11:24:40.099Z,69.30
2019-03-03T11:27:09.992Z,69.40
2019-03-03T11:29:49.220Z,69.30
2019-03-03T11:32:21.663Z,69.20
2019-03-03T11:34:51.535Z,69.20
2019-03-03T11:37:24.338Z,69.20
2019-03-03T11:39:54.201Z,69.20
2019-03-03T11:42:33.021Z,69.20
2019-03-03T11:45:02.905Z,69.20
2019-03-03T11:47:32.790Z,69.20
2019-03-03T11:50:11.685Z,69.20
2019-03-03T11:52:44.213Z,70.10
2019-03-03T11:55:14.103Z,69.20
2019-03-03T11:57:49.757Z,69.20
2019-03-03T12:00:25.355Z,69.20
2019-03-03T12:03:01.217Z,69.10
2019-03-03T12:05:37.081Z,69.20
2019-03-03T12:08:12.977Z,69.10
2019-03-03T12:10:42.836Z,69.10
2019-03-03T12:13:21.771Z,69.10
2019-03-03T12:15:57.956Z,69.10
2019-03-03T12:18:44.179Z,69.10
2019-03-03T12:21:23.035Z,69.00
2019-03-03T12:23:53.154Z,69.10
2019-03-03T12:26:32.173Z,69.10
2019-03-03T12:29:07.945Z,69.30
2019-03-03T12:31:50.869Z,69.60
2019-03-03T12:34:23.706Z,69.20
2019-03-03T12:36:54.229Z,69.30
2019-03-03T12:39:30.245Z,69.20
2019-03-03T12:42:00.217Z,69.30
2019-03-03T12:44:30.100Z,69.40
2019-03-03T12:47:08.834Z,69.30
2019-03-03T12:49:53.753Z,69.30
2019-03-03T12:52:23.650Z,69.40
2019-03-03T12:54:56.335Z,68.90
2019-03-03T12:57:32.478Z,69.30
2019-03-03T13:00:02.354Z,69.40
2019-03-03T13:02:48.662Z,69.30
2019-03-03T13:05:34.973Z,69.40
2019-03-03T13:08:07.855Z,69.40
2019-03-03T13:10:40.542Z,69.50
2019-03-03T13:13:10.459Z,69.40
2019-03-03T13:15:43.123Z,69.50
2019-03-03T13:18:13.602Z,69.40
2019-03-03T13:20:45.870Z,69.50
2019-03-03T13:23:18.716Z,69.40
2019-03-03T13:25:51.333Z,69.30
2019-03-03T13:28:33.340Z,69.30
2019-03-03T13:31:15.461Z,69.50
2019-03-03T13:34:00.809Z,69.50
2019-03-03T13:36:47.223Z,69.50
2019-03-03T13:39:19.779Z,69.50
2019-03-03T13:41:56.674Z,69.30
2019-03-03T13:44:25.033Z,69.50
2019-03-03T13:46:53.420Z,69.50
2019-03-03T13:49:21.659Z,69.40
2019-03-03T13:51:50.010Z,69.30
2019-03-03T13:54:18.267Z,69.30
2019-03-03T13:56:46.510Z,69.20
2019-03-03T13:59:14.749Z,69.20
2019-03-03T14:01:43.546Z,69.20
2019-03-03T14:04:11.906Z,69.20
2019-03-03T14:06:40.250Z,69.20
2019-03-03T14:09:08.898Z,69.20
2019-03-03T14:11:37.133Z,69.20
2019-03-03T14:14:05.374Z,69.20
2019-03-03T14:16:33.626Z,69.20
2019-03-03T14:19:01.857Z,69.20
2019-03-03T14:21:30.499Z,69.00
2019-03-03T14:23:59.045Z,69.00
2019-03-03T14:26:27.319Z,69.10
2019-03-03T14:28:55.577Z,69.00
2019-03-03T14:31:24.685Z,69.10
2019-03-03T14:33:52.928Z,68.90
2019-03-03T14:36:21.154Z,68.90
2019-03-03T14:38:49.429Z,68.90
2019-03-03T14:41:17.670Z,68.80
2019-03-03T14:43:45.907Z,68.80
2019-03-03T14:46:14.178Z,68.80
2019-03-03T14:48:42.414Z,68.80
2019-03-03T14:51:10.648Z,68.70
2019-03-03T14:53:38.898Z,68.70
2019-03-03T14:56:07.141Z,68.50
2019-03-03T14:58:35.385Z,68.50
2019-03-03T15:01:03.830Z,68.50
2019-03-03T15:03:32.135Z,68.50
2019-03-03T15:06:00.368Z,68.40
2019-03-03T15:08:28.683Z,68.40
2019-03-03T15:10:56.921Z,68.20
2019-03-03T15:13:25.166Z,68.10
2019-03-03T15:15:53.444Z,68.20
2019-03-03T15:18:21.665Z,68.10
2019-03-03T15:20:49.959Z,68.00
2019-03-03T15:23:18.434Z,67.90
2019-03-03T15:25:46.693Z,68.00
2019-03-03T15:28:14.926Z,67.90
2019-03-03T15:30:43.233Z,67.80
2019-03-03T15:33:11.484Z,67.50
2019-03-03T15:35:39.705Z,67.50
2019-03-03T15:38:07.961Z,67.30
2019-03-03T15:40:36.205Z,67.40
2019-03-03T15:43:04.438Z,67.30
2019-03-03T15:45:33.171Z,67.10
2019-03-03T15:48:01.408Z,67.00
2019-03-03T15:50:29.749Z,66.90
2019-03-03T15:52:58.061Z,66.80
2019-03-03T15:55:27.635Z,66.80
2019-03-03T15:57:55.887Z,66.70
2019-03-03T16:00:39.020Z,66.70
2019-03-03T16:03:07.274Z,66.60
2019-03-03T16:05:35.517Z,66.50
2019-03-03T16:08:08.489Z,66.70
2019-03-03T16:10:36.865Z,66.60
2019-03-03T16:13:05.243Z,66.40
2019-03-03T16:15:33.535Z,66.30
2019-03-03T16:18:01.777Z,66.00
2019-03-03T16:20:30.112Z,66.10
2019-03-03T16:22:58.366Z,66.20
2019-03-03T16:25:26.692Z,66.00
2019-03-03T16:27:54.932Z,66.10
2019-03-03T16:30:24.222Z,65.50
2019-03-03T16:32:52.466Z,65.60
2019-03-03T16:35:20.693Z,65.60
2019-03-03T16:37:49.135Z,65.70
2019-03-03T16:40:25.237Z,65.80
2019-03-03T16:42:53.509Z,65.50
2019-03-03T16:45:21.822Z,65.60
2019-03-03T16:47:50.076Z,65.10
2019-03-03T16:50:22.469Z,65.20
2019-03-03T16:52:50.786Z,65.30
2019-03-03T16:55:22.005Z,65.20
2019-03-03T16:57:50.258Z,65.00
2019-03-03T17:00:22.594Z,64.90
2019-03-03T17:02:50.845Z,65.00
2019-03-03T17:05:23.901Z,64.80
2019-03-03T17:07:52.446Z,64.60
2019-03-03T17:10:20.697Z,64.80
2019-03-03T17:12:50.577Z,64.60
2019-03-03T17:15:22.129Z,64.60
2019-03-03T17:17:52.000Z,64.50
2019-03-03T17:20:20.237Z,64.60
2019-03-03T17:22:48.492Z,64.50
2019-03-03T17:25:23.827Z,64.40
2019-03-03T17:27:52.081Z,64.20
2019-03-03T17:30:24.433Z,64.30
2019-03-03T17:32:52.677Z,65.20
2019-03-03T17:35:20.950Z,64.20
2019-03-03T17:37:49.422Z,64.40
2019-03-03T17:40:26.063Z,64.30
2019-03-03T17:42:54.385Z,64.30
2019-03-03T17:46:03.963Z,64.10
2019-03-03T17:48:32.565Z,64.00
2019-03-03T17:51:01.170Z,64.00
2019-03-03T17:53:29.717Z,64.10
2019-03-03T17:55:58.372Z,63.70
2019-03-03T17:58:27.078Z,63.90
2019-03-03T18:00:55.757Z,64.00
2019-03-03T18:03:24.225Z,63.80
2019-03-03T18:05:52.500Z,63.70
2019-03-03T18:08:22.430Z,63.30
2019-03-03T18:10:50.674Z,63.60
2019-03-03T18:13:18.929Z,63.70
2019-03-03T18:15:47.182Z,63.40
2019-03-03T18:18:15.453Z,63.10
2019-03-03T18:20:43.778Z,63.00
2019-03-03T18:23:12.114Z,63.20
2019-03-03T18:25:40.355Z,63.10
2019-03-03T18:28:08.609Z,63.10
2019-03-03T18:30:37.173Z,63.20
2019-03-03T18:33:05.592Z,63.10
2019-03-03T18:35:33.828Z,63.20
2019-03-03T18:38:02.066Z,63.10
2019-03-03T18:40:30.294Z,63.10
2019-03-03T18:42:58.534Z,63.10
2019-03-03T18:45:26.793Z,63.20
2019-03-03T18:47:55.023Z,63.30
2019-03-03T18:50:25.222Z,63.20
2019-03-03T18:52:53.558Z,63.10
2019-03-03T18:55:21.824Z,63.30
2019-03-03T18:57:50.049Z,64.00
2019-03-03T19:00:29.830Z,63.30
2019-03-03T19:02:58.489Z,63.40
2019-03-03T19:05:26.962Z,63.30
2019-03-03T19:07:55.209Z,63.30
2019-03-03T19:10:26.017Z,63.40
2019-03-03T19:12:54.263Z,63.60
2019-03-03T19:15:22.623Z,63.50
2019-03-03T19:17:50.866Z,63.50
2019-03-03T19:20:20.238Z,63.50
2019-03-03T19:22:48.495Z,63.40
2019-03-03T19:25:16.734Z,63.50
2019-03-03T19:27:44.970Z,63.40
2019-03-03T19:30:16.473Z,63.50
2019-03-03T19:32:45.271Z,63.50
2019-03-03T19:35:13.512Z,63.50
2019-03-03T19:37:41.761Z,63.70
2019-03-03T19:40:11.947Z,63.60
2019-03-03T19:42:40.193Z,63.60
2019-03-03T19:45:20.581Z,63.70
2019-03-03T19:47:48.817Z,63.60
2019-03-03T19:50:17.663Z,63.80
2019-03-03T19:52:45.931Z,63.70
2019-03-03T19:55:16.331Z,63.70
2019-03-03T19:57:44.573Z,63.60
2019-03-03T20:00:35.002Z,63.70
2019-03-03T20:02:57.319Z,63.60
2019-03-03T20:05:25.552Z,63.50
2019-03-03T20:07:53.823Z,63.60
2019-03-03T20:10:22.055Z,63.40
2019-03-03T20:12:50.785Z,63.40
2019-03-03T20:15:19.027Z,63.30
2019-03-03T20:17:47.650Z,64.30
2019-03-03T20:20:20.182Z,63.10
2019-03-03T20:22:48.448Z,63.20
2019-03-03T20:25:16.683Z,63.10
2019-03-03T20:27:45.514Z,63.00
2019-03-03T20:30:20.538Z,64.00
2019-03-03T20:32:48.838Z,63.10
2019-03-03T20:35:17.111Z,63.00
2019-03-03T20:37:45.349Z,63.70
2019-03-03T20:40:18.682Z,63.00
2019-03-03T20:42:46.995Z,63.00
2019-03-03T20:45:26.607Z,63.00
2019-03-03T20:47:54.986Z,62.90
2019-03-03T20:50:23.228Z,62.80
2019-03-03T20:52:51.499Z,62.60
2019-03-03T20:55:25.813Z,62.80
2019-03-03T20:57:54.194Z,62.60
2019-03-03T21:00:24.398Z,62.70
2019-03-03T21:02:52.634Z,62.60
2019-03-03T21:05:20.874Z,62.50
2019-03-03T21:07:51.683Z,62.40
2019-03-03T21:10:21.576Z,62.40
2019-03-03T21:12:49.805Z,62.30
2019-03-03T21:15:18.098Z,62.20
2019-03-03T21:17:46.422Z,63.00
2019-03-03T21:20:21.791Z,62.10
2019-03-03T21:22:50.077Z,61.90
2019-03-03T21:25:18.994Z,61.90
2019-03-03T21:27:47.301Z,62.00
2019-03-03T21:30:21.343Z,61.90
2019-03-03T21:32:49.660Z,61.80
2019-03-03T21:35:25.932Z,61.80
2019-03-03T21:37:54.965Z,61.50
2019-03-03T21:40:25.214Z,61.80
2019-03-03T21:42:55.158Z,61.50
2019-03-03T21:45:26.425Z,61.60
2019-03-03T21:48:02.326Z,61.50
2019-03-03T21:50:31.551Z,61.50
2019-03-03T21:53:00.173Z,61.40
2019-03-03T21:55:31.594Z,61.30
2019-03-03T21:57:59.906Z,61.50
2019-03-03T22:00:39.319Z,61.40
2019-03-03T22:03:07.556Z,62.20
2019-03-03T22:05:35.773Z,61.40
2019-03-03T22:08:05.239Z,61.20
2019-03-03T22:10:33.547Z,61.40
2019-03-03T22:13:09.169Z,61.20
2019-03-03T22:15:37.430Z,61.10
2019-03-03T22:18:05.728Z,61.10
2019-03-03T22:20:33.989Z,61.20
2019-03-03T22:23:02.299Z,61.00
2019-03-03T22:25:30.811Z,61.10
2019-03-03T22:28:00.682Z,61.00
2019-03-03T22:30:29.029Z,61.10
2019-03-03T22:32:57.269Z,61.10
2019-03-03T22:35:25.497Z,61.00
2019-03-03T22:37:53.785Z,60.80
2019-03-03T22:40:23.774Z,60.70
2019-03-03T22:42:52.023Z,60.80
2019-03-03T22:45:20.274Z,60.90
2019-03-03T22:47:48.517Z,60.80
2019-03-03T22:50:20.687Z,60.70
2019-03-03T22:52:48.934Z,60.70
2019-03-03T22:55:18.470Z,60.80
2019-03-03T22:57:46.754Z,60.50
2019-03-03T23:00:46.333Z,60.60
2019-03-03T23:03:17.823Z,60.50
2019-03-03T23:05:55.721Z,60.40
2019-03-03T23:08:30.259Z,60.20
2019-03-03T23:11:10.643Z,60.30
2019-03-03T23:13:42.134Z,60.20
2019-03-03T23:16:37.878Z,60.10
2019-03-03T23:19:27.217Z,60.10
2019-03-03T23:22:08.899Z,59.80
2019-03-03T23:24:40.387Z,59.90
2019-03-03T23:27:08.631Z,60.00
2019-03-03T23:29:36.977Z,59.80
2019-03-03T23:32:05.202Z,60.00
2019-03-03T23:34:33.442Z,59.80
2019-03-03T23:37:01.683Z,59.70
2019-03-03T23:39:29.916Z,59.60
2019-03-03T23:41:58.446Z,59.60
2019-03-03T23:44:26.685Z,59.50
2019-03-03T23:46:54.994Z,59.50
2019-03-03T23:49:23.271Z,59.50
2019-03-03T23:51:51.627Z,59.40
2019-03-03T23:54:19.863Z,59.20
2019-03-03T23:56:49.721Z,59.30
2019-03-03T23:59:18.042Z,59.10
